METAR Data
IDs: Format: Raw Decoded Include TAF

Data at: 1639 UTC 24 Aug 2019

PAUN 241556Z AUTO 13004KT 10SM CLR 02/01 A2984 RMK AO2 SLP109 T00170011 FZRANO
PAUN 241456Z AUTO 06003KT 10SM CLR 03/03 A2983 RMK AO2 SLP106 T00330028 53005
PAUN 241422Z AUTO 09003KT 1 1/2SM BR CLR 02/01 A2982 RMK AO2 FZRANO
PAUN 241416Z AUTO 10004KT 3/4SM BR CLR 02/01 A2983 RMK AO2 FZRANO
PAUN 241412Z AUTO 11005KT 1 1/2SM BR CLR 01/01 A2982 RMK AO2 FZRANO
PAUN 241356Z AUTO 10005KT 10SM CLR 02/02 A2982 RMK AO2 SLP103 T00220017 FZRANO
PAUN 241354Z AUTO 10005KT 3SM BR CLR 02/02 A2982 RMK AO2 FZRANO
PAUN 241348Z AUTO 12005KT 1SM BR VV002 03/02 A2982 RMK AO2
PAUN 241344Z AUTO 12004KT 3/4SM BR CLR 03/02 A2982 RMK AO2
PAUN 241337Z AUTO 12003KT 1 3/4SM BR CLR 03/02 A2982 RMK AO2
PAUN 241309Z AUTO 11003KT 10SM CLR 03/02 A2982 RMK AO2
PAUN 241301Z AUTO 13003KT 2SM BR CLR 02/02 A2982 RMK AO2 VIS 3/4V5 FZRANO
PAUN 241256Z AUTO 13003KT 1SM BR CLR 03/02 A2982 RMK AO2 VIS 1/2V5 SLP101 T00280022
PAUN 241253Z AUTO 10003KT 1/2SM FG CLR 03/02 A2981 RMK AO2
PAUN 241246Z AUTO 09003KT 1SM BR CLR 03/02 A2981 RMK AO2
PAUN 241156Z AUTO 00000KT 10SM CLR 04/03 A2981 RMK AO2 SLP098 T00440033 10117 20028 51007
PAUN 241056Z AUTO 04003KT 10SM CLR 05/04 A2980 RMK AO2 SLP097 T00500039
PAUN 240956Z AUTO 08003KT 10SM CLR 07/05 A2980 RMK AO2 SLP095 T00670050
PAUN 240856Z AUTO 00000KT 10SM CLR 08/06 A2979 RMK AO2 SLP091 T00830061 401390067 53012
PAUN 240756Z AUTO 33007KT 10SM CLR 10/06 A2977 RMK AO2 SLP087 T01000061
PAUN 240656Z AUTO 33010KT 10SM CLR 10/07 A2976 RMK AO2 SLP082 T01000067
PAUN 240556Z AUTO 34010KT 10SM CLR 12/07 A2975 RMK AO2 SLP079 60000 T01170072 10139 20111 53001
PAUN 240456Z AUTO 34009KT 10SM BKN046 13/08 A2975 RMK AO2 SLP077 T01280078
PAUN 240356Z AUTO 34013KT 10SM SCT042 14/08 A2974 RMK AO2 SLP076 T01390078
PAUN 240256Z AUTO 33010KT 10SM FEW021 OVC047 13/08 A2975 RMK AO2 SLP078 60000 T01280078 57003
PAUN 240228Z AUTO 31009KT 10SM FEW023 BKN039 OVC045 12/09 A2975 RMK AO2
PAUN 240156Z AUTO 33012G23KT 9SM FEW008 BKN019 OVC042 11/08 A2975 RMK AO2 WSHFT 0109 RAB11E25 SLP079 P0000 T01110083
PAUN 240140Z AUTO 31012KT 10SM SCT010 BKN030 OVC042 12/11 A2975 RMK AO2 WSHFT 0109 RAB11E25 P0000
PAUN 240128Z AUTO 32012KT 4SM BR SCT008 BKN024 OVC032 11/10 A2975 RMK AO2 WSHFT 0109 RAB11E25 P0000
PAUN 240121Z AUTO 34012KT 3SM -RA BR SCT008 BKN013 OVC026 11/10 A2975 RMK AO2 RAB11 P0000
PAUN 240119Z AUTO 34013G19KT 2 1/2SM -RA BR SCT008 BKN015 OVC033 12/10 A2975 RMK AO2 RAB11 P0000
PAUN 240113Z AUTO 32014G19KT 3SM -RA BR SCT010 BKN018 OVC048 12/10 A2975 RMK AO2 RAB11 P0000
PAUN 240056Z AUTO 30010KT 10SM FEW007 BKN031 OVC048 12/09 A2975 RMK AO2 RAB24E39 SLP079 P0000 T01220094
PAUN 240041Z AUTO 31010KT 10SM SCT006 BKN026 OVC055 12/11 A2975 RMK AO2 RAB24E39 P0000
PAUN 240034Z AUTO 31011KT 4SM -RA BR BKN009 BKN023 OVC030 12/11 A2976 RMK AO2 RAB24 CIG 005V016 P0000
PAUN 240028Z AUTO 30013KT 2SM -RA BR FEW008 BKN023 OVC040 12/10 A2976 RMK AO2 RAB24 P0000
PAUN 240024Z AUTO 30014KT 3SM -RA SCT012 BKN030 OVC040 12/09 A2976 RMK AO2 RAB24 P0000
PAUN 232356Z AUTO 31010KT 10SM SCT012 BKN026 OVC043 12/09 A2976 RMK AO2 SLP081 T01220094 10122 20094 54000
PAUN 232351Z AUTO 29008KT 10SM SCT012 BKN028 OVC047 12/09 A2976 RMK AO2
PAUN 232339Z AUTO 30008KT 10SM SCT025 BKN043 BKN050 12/09 A2976 RMK AO2
PAUN 232322Z AUTO 29009KT 10SM FEW008 BKN023 BKN049 12/09 A2976 RMK AO2
PAUN 232305Z AUTO 31012KT 7SM FEW006 SCT011 BKN032 11/09 A2976 RMK AO2
PAUN 232256Z AUTO 31013KT 10SM FEW011 SCT023 BKN034 12/09 A2976 RMK AO2 SLP081 T01170089
PAUN 232218Z AUTO 31011KT 10SM FEW010 SCT019 BKN031 12/09 A2976 RMK AO2
PAUN 232156Z AUTO 31011KT 10SM SCT020 BKN027 OVC035 12/08 A2976 RMK AO2 SLP081 T01170083
PAUN 232056Z AUTO 31010KT 10SM BKN019 OVC039 11/08 A2975 RMK AO2 SLP079 T01110078 55000
PAUN 231956Z AUTO 31008KT 10SM FEW029 BKN037 11/06 A2975 RMK AO2 SLP079 T01110061
PAUN 231856Z AUTO 34008KT 10SM FEW070 OVC120 11/06 A2975 RMK AO2 SLP079 T01060056
PAUN 231756Z AUTO 33005KT 10SM OVC120 09/06 A2975 RMK AO2 SLP080 T00940061 10094 20067 53003
PAUN 231656Z AUTO 33009KT 10SM FEW120 09/06 A2975 RMK AO2 SLP077 T00890061
PAUN 231556Z AUTO 30004KT 10SM SCT120 08/06 A2975 RMK AO2 SLP077 T00830056
PAUN 231456Z AUTO 31005KT 10SM CLR 08/06 A2974 RMK AO2 SLP076 T00830056 53009
PAUN 231356Z AUTO 34003KT 10SM CLR 08/05 A2973 RMK AO2 SLP072 T00780050
PAUN 231256Z AUTO 02004KT 10SM CLR 09/06 A2972 RMK AO2 SLP069 T00940056
PAUN 231156Z AUTO 36004KT 10SM CLR 07/05 A2972 RMK AO2 SLP067 T00720050 10133 20072 50004
PAUN 231056Z AUTO 36003KT 10SM SCT055 09/06 A2972 RMK AO2 SLP067 T00940061
PAUN 230956Z AUTO VRB03KT 10SM CLR 11/06 A2972 RMK AO2 SLP067 T01110061
PAUN 230856Z AUTO 31008KT 10SM CLR 11/07 A2970 RMK AO2 SLP063 T01110067 401560061 53010
PAUN 230756Z AUTO 34013KT 10SM CLR 12/07 A2968 RMK AO2 SLP056 T01170067
PAUN 230656Z AUTO 33008KT 10SM CLR 12/07 A2968 RMK AO2 SLP055 T01170072
PAUN 230556Z AUTO 33008KT 10SM CLR 14/07 A2968 RMK AO2 SLP053 T01390067 10156 20139 55000
PAUN 230456Z AUTO 33012KT 10SM CLR 16/09 A2967 RMK AO2 SLP051 T01560089